createdAt,value
2023-09-05T00:00:49.003Z,18.00
2023-09-05T00:03:17.560Z,18.00
2023-09-05T00:05:44.436Z,18.00
2023-09-05T00:08:11.334Z,17.90
2023-09-05T00:10:38.087Z,18.00
2023-09-05T00:15:33.883Z,18.00
2023-09-05T00:18:00.932Z,17.90
2023-09-05T00:20:27.780Z,18.00
2023-09-05T00:22:54.489Z,18.00
2023-09-05T00:25:21.237Z,17.90
2023-09-05T00:27:47.927Z,17.90
2023-09-05T00:30:15.388Z,17.90
2023-09-05T00:32:42.434Z,18.00
2023-09-05T00:35:09.358Z,17.90
2023-09-05T00:37:36.202Z,18.00
2023-09-05T00:40:03.245Z,18.00
2023-09-05T00:42:30.058Z,17.90
2023-09-05T00:44:56.846Z,17.90
2023-09-05T00:49:58.181Z,17.90
2023-09-05T00:52:26.619Z,17.90
2023-09-05T00:54:55.729Z,17.90
2023-09-05T00:57:25.226Z,17.90
2023-09-05T00:59:52.172Z,18.00
2023-09-05T01:04:46.283Z,18.00
2023-09-05T01:07:22.003Z,17.90
2023-09-05T01:10:12.994Z,17.80
2023-09-05T01:12:39.833Z,17.80
2023-09-05T01:15:08.936Z,17.80
2023-09-05T01:20:05.699Z,17.80
2023-09-05T01:22:47.233Z,17.80
2023-09-05T01:25:14.456Z,17.80
2023-09-05T01:30:10.453Z,17.80
2023-09-05T01:32:38.973Z,17.70
2023-09-05T01:35:06.267Z,17.60
2023-09-05T01:44:54.385Z,17.30
2023-09-05T01:47:21.159Z,17.30
2023-09-05T01:49:47.869Z,17.20
2023-09-05T01:52:14.630Z,17.10
2023-09-05T01:54:42.302Z,17.10
2023-09-05T01:57:09.051Z,17.10
2023-09-05T01:59:35.816Z,17.10
2023-09-05T02:02:02.607Z,17.10
2023-09-05T02:04:29.378Z,17.00
2023-09-05T02:06:56.094Z,16.90
2023-09-05T02:09:22.903Z,16.90
2023-09-05T02:11:49.599Z,16.90
2023-09-05T02:14:16.263Z,16.90
2023-09-05T02:16:43.121Z,16.80
2023-09-05T02:19:09.965Z,16.70
2023-09-05T02:21:36.668Z,16.70
2023-09-05T02:24:03.572Z,16.70
2023-09-05T02:28:59.617Z,16.70
2023-09-05T02:31:26.403Z,16.70
2023-09-05T02:36:21.743Z,16.70
2023-09-05T02:38:49.088Z,16.70
2023-09-05T02:41:17.229Z,16.70
2023-09-05T02:43:44.959Z,16.70
2023-09-05T02:46:11.802Z,16.70
2023-09-05T02:48:40.552Z,16.70
2023-09-05T02:51:11.885Z,16.70
2023-09-05T02:53:39.414Z,16.70
2023-09-05T02:56:06.678Z,16.60
2023-09-05T02:58:33.996Z,16.60
2023-09-05T03:01:05.493Z,16.50
2023-09-05T03:03:33.107Z,16.40
2023-09-05T03:06:10.630Z,16.40
2023-09-05T03:08:38.147Z,16.40
2023-09-05T03:13:32.117Z,16.50
2023-09-05T03:15:58.858Z,16.30
2023-09-05T03:18:28.284Z,16.20
2023-09-05T03:20:55.050Z,16.10
2023-09-05T03:23:23.905Z,16.00
2023-09-05T03:25:52.185Z,16.00
2023-09-05T03:28:18.886Z,16.00
2023-09-05T03:35:40.067Z,16.20
2023-09-05T03:40:35.030Z,16.20
2023-09-05T03:43:02.155Z,16.10
2023-09-05T03:48:01.584Z,15.80
2023-09-05T03:50:29.877Z,15.80
2023-09-05T03:52:56.771Z,15.80
2023-09-05T03:55:23.699Z,15.80
2023-09-05T03:57:50.406Z,15.90
2023-09-05T04:00:17.225Z,15.90
2023-09-05T04:02:44.086Z,15.90
2023-09-05T04:05:12.185Z,15.90
2023-09-05T04:07:40.499Z,15.80
2023-09-05T04:10:09.648Z,15.80
2023-09-05T04:12:37.620Z,15.70
2023-09-05T04:15:04.798Z,15.70
2023-09-05T04:17:31.663Z,15.70
2023-09-05T04:19:58.380Z,15.70
2023-09-05T04:22:26.356Z,15.80
2023-09-05T04:24:56.374Z,15.80
2023-09-05T04:27:24.942Z,15.80
2023-09-05T04:29:55.501Z,15.70
2023-09-05T04:34:58.453Z,15.60
2023-09-05T04:37:25.448Z,15.50
2023-09-05T04:39:52.525Z,15.40
2023-09-05T04:42:19.384Z,15.40
2023-09-05T04:44:46.228Z,15.30
2023-09-05T04:47:28.655Z,15.30
2023-09-05T04:49:57.493Z,15.30
2023-09-05T04:52:27.756Z,15.30
2023-09-05T04:54:59.712Z,15.40
2023-09-05T04:57:27.560Z,15.40
2023-09-05T05:00:01.330Z,15.40
2023-09-05T05:02:29.324Z,15.40
2023-09-05T05:04:56.401Z,15.50
2023-09-05T05:09:50.739Z,15.60
2023-09-05T05:12:17.917Z,15.70
2023-09-05T05:14:44.867Z,15.70
2023-09-05T05:17:14.210Z,15.60
2023-09-05T05:19:41.551Z,15.60
2023-09-05T05:22:08.554Z,15.50
2023-09-05T05:24:35.717Z,15.50
2023-09-05T05:29:33.502Z,15.60
2023-09-05T05:32:02.054Z,15.60
2023-09-05T05:34:30.156Z,15.60
2023-09-05T05:36:56.875Z,15.60
2023-09-05T05:39:25.332Z,15.60
2023-09-05T05:44:19.289Z,15.80
2023-09-05T05:49:13.248Z,16.00
2023-09-05T05:51:41.058Z,16.20
2023-09-05T05:54:08.449Z,16.50
2023-09-05T05:56:36.025Z,16.90
2023-09-05T06:03:57.594Z,17.80
2023-09-05T06:06:24.400Z,19.90
2023-09-05T06:08:51.152Z,21.20
2023-09-05T06:13:44.960Z,22.40
2023-09-05T06:18:39.005Z,22.60
2023-09-05T06:21:07.250Z,22.30
2023-09-05T06:23:36.278Z,22.40
2023-09-05T06:26:03.200Z,22.40
2023-09-05T06:28:29.906Z,22.70
2023-09-05T06:31:00.182Z,22.70
2023-09-05T06:33:29.602Z,23.00
2023-09-05T06:35:56.421Z,23.30
2023-09-05T06:38:24.554Z,23.50
2023-09-05T06:40:51.762Z,23.60
2023-09-05T06:43:18.544Z,23.80
2023-09-05T06:45:45.320Z,23.80
2023-09-05T06:48:12.205Z,24.20
2023-09-05T06:50:39.120Z,24.50
2023-09-05T06:53:05.961Z,24.80
2023-09-05T06:55:36.034Z,24.90
2023-09-05T06:58:03.047Z,25.00
2023-09-05T07:00:30.362Z,25.10
2023-09-05T07:02:57.100Z,25.20
2023-09-05T07:05:24.061Z,25.30
2023-09-05T07:07:50.809Z,25.20
2023-09-05T07:10:17.638Z,25.30
2023-09-05T07:12:44.425Z,25.30
2023-09-05T07:15:11.178Z,25.50
2023-09-05T07:17:37.933Z,25.50
2023-09-05T07:20:05.130Z,25.70
2023-09-05T07:22:31.895Z,25.70
2023-09-05T07:24:58.602Z,25.90
2023-09-05T07:27:25.327Z,26.00
2023-09-05T07:29:52.314Z,25.80
2023-09-05T07:32:19.014Z,26.00
2023-09-05T07:34:45.779Z,26.40
2023-09-05T07:37:12.460Z,26.90
2023-09-05T07:39:39.728Z,27.30
2023-09-05T07:42:06.500Z,27.40
2023-09-05T07:44:33.207Z,27.20
2023-09-05T07:46:59.923Z,27.00
2023-09-05T07:49:27.485Z,27.00
2023-09-05T07:51:58.930Z,26.90
2023-09-05T07:54:26.994Z,26.90
2023-09-05T07:56:53.786Z,26.80
2023-09-05T07:59:20.751Z,26.90
2023-09-05T08:01:47.557Z,26.60
2023-09-05T08:04:14.381Z,26.40
2023-09-05T08:06:42.680Z,26.20
2023-09-05T08:09:09.551Z,25.90
2023-09-05T08:11:36.266Z,25.80
2023-09-05T08:14:03.003Z,25.90
2023-09-05T08:16:30.652Z,25.90
2023-09-05T08:18:57.397Z,25.50
2023-09-05T08:21:24.180Z,25.50
2023-09-05T08:23:51.452Z,26.00
2023-09-05T08:26:18.278Z,26.20
2023-09-05T08:28:46.964Z,26.20
2023-09-05T08:31:18.728Z,26.40
2023-09-05T08:33:45.949Z,26.80
2023-09-05T08:36:12.644Z,27.00
2023-09-05T08:38:39.580Z,26.40
2023-09-05T08:41:08.198Z,26.40
2023-09-05T08:43:36.756Z,26.30
2023-09-05T08:46:04.520Z,26.50
2023-09-05T08:48:47.432Z,26.40
2023-09-05T08:51:20.164Z,26.70
2023-09-05T08:53:57.325Z,26.90
2023-09-05T08:56:26.163Z,27.10
2023-09-05T08:58:53.929Z,27.00
2023-09-05T09:01:23.393Z,27.10
2023-09-05T09:03:50.676Z,27.00
2023-09-05T09:06:17.434Z,26.90
2023-09-05T09:08:45.143Z,26.90
2023-09-05T09:11:12.689Z,27.00
2023-09-05T09:13:42.530Z,27.10
2023-09-05T09:16:09.362Z,27.20
2023-09-05T09:18:36.108Z,27.20
2023-09-05T09:21:06.372Z,27.40
2023-09-05T09:23:34.724Z,27.20
2023-09-05T09:26:05.306Z,27.40
2023-09-05T09:28:35.438Z,27.40
2023-09-05T09:31:12.269Z,27.00
2023-09-05T09:33:40.109Z,27.20
2023-09-05T09:36:10.780Z,27.40
2023-09-05T09:38:39.833Z,27.40
2023-09-05T09:41:08.051Z,27.70
2023-09-05T09:43:36.624Z,28.10
2023-09-05T09:46:06.047Z,28.00
2023-09-05T09:48:37.744Z,28.10
2023-09-05T09:51:08.531Z,28.40
2023-09-05T09:53:40.713Z,28.10
2023-09-05T09:56:14.462Z,28.00
2023-09-05T09:58:46.198Z,28.20
2023-09-05T10:01:14.427Z,28.30
2023-09-05T10:03:43.773Z,28.30
2023-09-05T10:06:11.306Z,28.30
2023-09-05T10:08:45.936Z,28.40
2023-09-05T10:11:15.490Z,28.50
2023-09-05T10:13:43.912Z,28.50
2023-09-05T10:16:13.712Z,28.50
2023-09-05T10:18:44.681Z,28.50
2023-09-05T10:21:12.201Z,28.60
2023-09-05T10:23:40.044Z,28.80
2023-09-05T10:26:08.398Z,28.90
2023-09-05T10:28:35.284Z,28.80
2023-09-05T10:31:13.731Z,29.30
2023-09-05T10:33:47.079Z,29.30
2023-09-05T10:36:40.341Z,29.10
2023-09-05T10:39:25.767Z,29.10
2023-09-05T10:41:53.282Z,29.20
2023-09-05T10:44:20.200Z,29.20
2023-09-05T10:46:54.165Z,29.20
2023-09-05T10:49:23.681Z,29.10
2023-09-05T10:52:15.937Z,29.20
2023-09-05T10:54:42.873Z,29.80
2023-09-05T10:57:34.711Z,29.80
2023-09-05T11:00:36.337Z,29.90
2023-09-05T11:03:16.685Z,30.00
2023-09-05T11:05:43.881Z,30.00
2023-09-05T11:08:23.891Z,30.00
2023-09-05T11:10:56.319Z,29.60
2023-09-05T11:13:23.208Z,29.80
2023-09-05T11:15:59.431Z,29.90
2023-09-05T11:18:26.319Z,30.10
2023-09-05T11:20:53.055Z,30.10
2023-09-05T11:23:30.413Z,30.40
2023-09-05T11:26:05.067Z,30.50
2023-09-05T11:28:33.352Z,30.40
2023-09-05T11:31:04.117Z,30.20
2023-09-05T11:33:31.349Z,30.40
2023-09-05T11:35:59.019Z,30.50
2023-09-05T11:38:27.442Z,30.80
2023-09-05T11:40:56.579Z,30.60
2023-09-05T11:43:24.200Z,30.60
2023-09-05T11:45:58.682Z,30.50
2023-09-05T11:48:28.650Z,30.50
2023-09-05T11:50:55.831Z,30.90
2023-09-05T11:53:23.575Z,31.10
2023-09-05T11:55:50.771Z,31.10
2023-09-05T11:58:20.036Z,30.90
2023-09-05T12:00:52.325Z,30.70
2023-09-05T12:03:19.530Z,30.80
2023-09-05T12:05:52.883Z,30.60
2023-09-05T12:08:34.877Z,30.80
2023-09-05T12:11:04.439Z,30.90
2023-09-05T12:13:44.476Z,30.90
2023-09-05T12:16:11.684Z,30.80
2023-09-05T12:18:41.100Z,30.70
2023-09-05T12:21:09.717Z,30.50
2023-09-05T12:23:36.559Z,30.80
2023-09-05T12:26:03.955Z,31.00
2023-09-05T12:28:32.133Z,31.00
2023-09-05T12:31:18.709Z,30.90
2023-09-05T12:33:46.108Z,30.70
2023-09-05T12:36:12.924Z,30.90
2023-09-05T12:38:39.637Z,30.90
2023-09-05T12:41:32.839Z,31.20
2023-09-05T12:44:00.078Z,31.10
2023-09-05T12:46:26.900Z,30.90
2023-09-05T12:48:55.313Z,31.00
2023-09-05T12:51:22.173Z,31.30
2023-09-05T12:53:50.919Z,31.10
2023-09-05T12:56:17.674Z,31.10
2023-09-05T12:58:45.095Z,30.90
2023-09-05T13:01:11.837Z,31.10
2023-09-05T13:03:38.620Z,31.10
2023-09-05T13:06:05.450Z,31.00
2023-09-05T13:08:33.372Z,30.90
2023-09-05T13:11:00.122Z,30.50
2023-09-05T13:13:26.870Z,30.80
2023-09-05T13:15:53.627Z,30.80
2023-09-05T13:18:20.433Z,30.80
2023-09-05T13:20:47.367Z,30.80
2023-09-05T13:23:14.486Z,31.20
2023-09-05T13:25:42.657Z,31.30
2023-09-05T13:28:09.538Z,31.00
2023-09-05T13:30:36.764Z,31.10
2023-09-05T13:33:04.159Z,31.00
2023-09-05T13:35:32.972Z,31.00
2023-09-05T13:37:59.974Z,30.90
2023-09-05T13:40:26.981Z,31.00
2023-09-05T13:42:53.774Z,31.00
2023-09-05T13:45:20.590Z,31.20
2023-09-05T13:47:47.424Z,31.20
2023-09-05T13:50:21.260Z,31.10
2023-09-05T13:52:49.534Z,31.10
2023-09-05T13:55:16.551Z,31.10
2023-09-05T13:57:45.393Z,31.10
2023-09-05T14:00:12.730Z,31.20
2023-09-05T14:02:39.533Z,31.20
2023-09-05T14:05:06.831Z,31.40
2023-09-05T14:07:33.658Z,31.60
2023-09-05T14:12:27.998Z,31.30
2023-09-05T14:14:54.817Z,31.20
2023-09-05T14:17:22.993Z,31.00
2023-09-05T14:19:52.916Z,31.00
2023-09-05T14:22:19.700Z,31.00
2023-09-05T14:27:14.629Z,31.40
2023-09-05T14:29:41.985Z,31.40
2023-09-05T14:32:08.891Z,31.20
2023-09-05T14:34:35.784Z,31.20
2023-09-05T14:37:02.768Z,31.10
2023-09-05T14:39:30.905Z,31.00
2023-09-05T14:41:57.659Z,31.00
2023-09-05T14:44:24.403Z,31.00
2023-09-05T14:46:51.270Z,31.00
2023-09-05T14:49:18.104Z,30.90
2023-09-05T14:51:45.039Z,30.90
2023-09-05T14:54:12.266Z,30.90
2023-09-05T14:56:40.394Z,31.00
2023-09-05T14:59:07.145Z,31.10
2023-09-05T15:01:33.879Z,31.00
2023-09-05T15:04:00.756Z,31.00
2023-09-05T15:06:28.777Z,30.80
2023-09-05T15:08:55.519Z,30.80
2023-09-05T15:11:22.271Z,31.00
2023-09-05T15:13:49.803Z,31.00
2023-09-05T15:16:16.623Z,31.10
2023-09-05T15:18:43.666Z,31.20
2023-09-05T15:21:11.653Z,30.80
2023-09-05T15:23:38.585Z,30.80
2023-09-05T15:26:06.031Z,30.70
2023-09-05T15:28:32.953Z,30.90
2023-09-05T15:30:59.823Z,30.80
2023-09-05T15:33:26.695Z,30.80
2023-09-05T15:36:00.775Z,30.60
2023-09-05T15:38:28.588Z,30.50
2023-09-05T15:40:55.557Z,30.50
2023-09-05T15:45:51.903Z,30.30
2023-09-05T15:48:19.077Z,30.40
2023-09-05T15:50:46.412Z,30.50
2023-09-05T15:53:19.341Z,30.10
2023-09-05T15:55:46.120Z,30.10
2023-09-05T15:58:13.018Z,30.10
2023-09-05T16:00:39.944Z,30.00
2023-09-05T16:03:07.030Z,30.00
2023-09-05T16:05:33.944Z,30.00
2023-09-05T16:08:00.690Z,29.90
2023-09-05T16:10:27.785Z,30.00
2023-09-05T16:12:54.613Z,30.00
2023-09-05T16:15:21.511Z,29.90
2023-09-05T16:17:48.337Z,29.90
2023-09-05T16:20:15.376Z,29.80
2023-09-05T16:22:42.125Z,29.70
2023-09-05T16:25:11.228Z,29.80
2023-09-05T16:27:38.239Z,29.50
2023-09-05T16:30:06.006Z,29.40
2023-09-05T16:32:32.782Z,29.40
2023-09-05T16:34:59.512Z,29.30
2023-09-05T16:37:26.398Z,29.30
2023-09-05T16:39:53.340Z,29.30
2023-09-05T16:42:20.264Z,29.50
2023-09-05T16:44:47.518Z,29.40
2023-09-05T16:47:15.081Z,29.30
2023-09-05T16:49:41.882Z,29.30
2023-09-05T16:52:08.589Z,29.20
2023-09-05T16:54:35.405Z,29.20
2023-09-05T16:57:02.148Z,29.10
2023-09-05T16:59:28.881Z,29.10
2023-09-05T17:01:55.657Z,29.00
2023-09-05T17:04:22.625Z,29.00
2023-09-05T17:06:52.409Z,29.00
2023-09-05T17:09:19.236Z,28.80
2023-09-05T17:11:45.985Z,28.80
2023-09-05T17:14:12.697Z,28.80
2023-09-05T17:16:39.483Z,28.90
2023-09-05T17:21:33.610Z,28.80
2023-09-05T17:24:00.562Z,28.70
2023-09-05T17:26:27.312Z,28.40
2023-09-05T17:28:55.923Z,28.40
2023-09-05T17:31:22.799Z,28.30
2023-09-05T17:33:49.846Z,28.10
2023-09-05T17:36:16.744Z,28.10
2023-09-05T17:38:43.532Z,27.90
2023-09-05T17:41:10.369Z,27.70
2023-09-05T17:43:38.139Z,27.60
2023-09-05T17:46:09.128Z,27.00
2023-09-05T17:51:03.698Z,26.80
2023-09-05T17:53:30.847Z,26.70
2023-09-05T17:55:57.627Z,26.60
2023-09-05T17:58:25.083Z,26.30
2023-09-05T18:00:52.847Z,26.30
2023-09-05T18:03:19.919Z,26.00
2023-09-05T18:05:50.701Z,25.80
2023-09-05T18:08:18.127Z,25.70
2023-09-05T18:10:45.879Z,25.70
2023-09-05T18:13:12.826Z,25.40
2023-09-05T18:15:39.851Z,25.30
2023-09-05T18:18:06.968Z,25.10
2023-09-05T18:20:35.999Z,25.10
2023-09-05T18:23:03.796Z,25.00
2023-09-05T18:25:32.148Z,24.90
2023-09-05T18:30:26.190Z,24.70
2023-09-05T18:32:53.113Z,24.60
2023-09-05T18:35:20.104Z,24.50
2023-09-05T18:37:48.077Z,24.40
2023-09-05T18:40:15.584Z,24.30
2023-09-05T18:42:42.564Z,24.20
2023-09-05T18:45:10.943Z,24.10
2023-09-05T18:47:38.234Z,24.00
2023-09-05T18:50:05.918Z,23.90
2023-09-05T18:52:32.646Z,23.80
2023-09-05T18:54:59.490Z,23.60
2023-09-05T18:57:26.448Z,23.50
2023-09-05T18:59:53.364Z,23.40
2023-09-05T19:02:26.266Z,23.40
2023-09-05T19:04:53.433Z,23.30
2023-09-05T19:07:20.179Z,23.30
2023-09-05T19:09:46.947Z,23.20
2023-09-05T19:14:41.592Z,23.10
2023-09-05T19:17:08.400Z,23.10
2023-09-05T19:19:37.033Z,23.00
2023-09-05T19:22:05.065Z,23.00
2023-09-05T19:24:33.744Z,22.90
2023-09-05T19:27:00.585Z,22.70
2023-09-05T19:29:29.738Z,22.60
2023-09-05T19:31:56.746Z,22.40
2023-09-05T19:34:23.796Z,22.40
2023-09-05T19:36:50.592Z,22.40
2023-09-05T19:39:17.904Z,22.50
2023-09-05T19:41:44.791Z,22.40
2023-09-05T19:44:11.595Z,22.30
2023-09-05T19:46:38.388Z,22.20
2023-09-05T19:49:05.659Z,22.10
2023-09-05T19:51:32.585Z,22.10
2023-09-05T19:53:59.336Z,22.20
2023-09-05T19:56:26.218Z,22.20
2023-09-05T19:58:54.007Z,22.20
2023-09-05T20:01:20.986Z,22.10
2023-09-05T20:03:48.567Z,22.10
2023-09-05T20:06:15.571Z,22.10
2023-09-05T20:08:42.446Z,22.10
2023-09-05T20:11:09.509Z,22.00
2023-09-05T20:13:36.355Z,22.00
2023-09-05T20:16:03.416Z,22.00
2023-09-05T20:18:30.751Z,22.00
2023-09-05T20:20:59.492Z,22.00
2023-09-05T20:23:26.377Z,21.80
2023-09-05T20:25:53.220Z,21.70
2023-09-05T20:28:20.340Z,21.70
2023-09-05T20:30:58.019Z,21.50
2023-09-05T20:33:25.088Z,21.50
2023-09-05T20:35:53.417Z,21.40
2023-09-05T20:38:20.971Z,21.20
2023-09-05T20:40:48.704Z,21.10
2023-09-05T20:43:16.371Z,21.00
2023-09-05T20:45:43.608Z,21.10
2023-09-05T20:48:11.385Z,21.00
2023-09-05T20:50:38.367Z,20.90
2023-09-05T20:53:05.903Z,20.80
2023-09-05T20:55:33.394Z,20.80
2023-09-05T20:58:00.936Z,20.80
2023-09-05T21:00:29.686Z,20.80
2023-09-05T21:02:59.870Z,20.70
2023-09-05T21:05:30.699Z,20.70
2023-09-05T21:07:57.500Z,20.70
2023-09-05T21:10:26.125Z,20.60
2023-09-05T21:12:54.959Z,20.40
2023-09-05T21:15:22.602Z,20.40
2023-09-05T21:17:49.584Z,20.50
2023-09-05T21:20:16.439Z,20.50
2023-09-05T21:22:44.217Z,20.60
2023-09-05T21:25:12.066Z,20.30
2023-09-05T21:27:39.393Z,20.40
2023-09-05T21:30:07.547Z,20.30
2023-09-05T21:32:38.787Z,20.20
2023-09-05T21:35:06.460Z,20.40
2023-09-05T21:37:33.384Z,20.40
2023-09-05T21:40:00.749Z,20.40
2023-09-05T21:42:27.973Z,20.50
2023-09-05T21:44:55.256Z,20.40
2023-09-05T21:47:22.181Z,20.30
2023-09-05T21:49:51.420Z,20.00
2023-09-05T21:52:18.677Z,20.00
2023-09-05T21:54:45.675Z,20.10
2023-09-05T21:57:12.599Z,20.10
2023-09-05T21:59:39.345Z,20.20
2023-09-05T22:02:06.173Z,20.20
2023-09-05T22:04:32.966Z,20.30
2023-09-05T22:06:59.814Z,20.40
2023-09-05T22:09:26.873Z,20.50
2023-09-05T22:11:53.770Z,20.50
2023-09-05T22:14:24.036Z,20.60
2023-09-05T22:16:51.376Z,20.70
2023-09-05T22:19:29.889Z,20.70
2023-09-05T22:21:57.342Z,20.80
2023-09-05T22:24:27.925Z,20.80
2023-09-05T22:26:56.115Z,20.70
2023-09-05T22:29:23.533Z,20.60
2023-09-05T22:31:50.953Z,20.50
2023-09-05T22:34:17.677Z,20.50
2023-09-05T22:36:44.678Z,20.50
2023-09-05T22:39:11.905Z,20.50
2023-09-05T22:41:39.604Z,20.40
2023-09-05T22:44:09.255Z,20.40
2023-09-05T22:46:36.180Z,20.50
2023-09-05T22:49:03.154Z,20.40
2023-09-05T22:51:29.939Z,20.40
2023-09-05T22:53:56.718Z,20.30
2023-09-05T22:56:23.477Z,20.20
2023-09-05T22:58:54.093Z,20.20
2023-09-05T23:01:21.683Z,20.10
2023-09-05T23:03:48.827Z,20.00
2023-09-05T23:06:15.911Z,20.00
2023-09-05T23:08:42.780Z,20.20
2023-09-05T23:11:09.792Z,20.20
2023-09-05T23:13:39.426Z,20.20
2023-09-05T23:16:07.083Z,20.20
2023-09-05T23:18:36.215Z,20.20
2023-09-05T23:21:05.878Z,20.20
2023-09-05T23:23:33.068Z,20.10
2023-09-05T23:25:59.964Z,20.20
2023-09-05T23:28:27.451Z,20.20
2023-09-05T23:30:54.841Z,20.10
2023-09-05T23:33:22.633Z,20.10
2023-09-05T23:35:51.313Z,20.10
2023-09-05T23:38:19.096Z,20.10
2023-09-05T23:40:45.902Z,20.10
2023-09-05T23:43:16.068Z,20.10
2023-09-05T23:45:54.363Z,20.00
2023-09-05T23:48:24.573Z,20.00
2023-09-05T23:50:51.692Z,20.00
2023-09-05T23:53:18.627Z,19.90
2023-09-05T23:55:46.063Z,19.90
2023-09-05T23:58:13.117Z,19.90
